createdAt,value
2022-10-02T00:00:16.755Z,11.20
2022-10-02T00:03:00.923Z,11.10
2022-10-02T00:05:46.098Z,11.10
2022-10-02T00:08:29.078Z,11.10
2022-10-02T00:11:09.384Z,11.10
2022-10-02T00:13:57.726Z,11.10
2022-10-02T00:16:28.326Z,11.20
2022-10-02T00:18:56.916Z,11.20
2022-10-02T00:21:51.955Z,11.20
2022-10-02T00:24:24.741Z,11.20
2022-10-02T00:26:58.590Z,11.20
2022-10-02T00:29:33.398Z,11.30
2022-10-02T00:32:19.143Z,11.30
2022-10-02T00:35:07.884Z,11.40
2022-10-02T00:38:00.417Z,11.40
2022-10-02T00:40:59.934Z,11.50
2022-10-02T00:43:45.582Z,11.50
2022-10-02T00:46:37.441Z,11.50
2022-10-02T00:49:33.736Z,11.50
2022-10-02T00:52:08.720Z,11.60
2022-10-02T00:55:09.198Z,11.50
2022-10-02T00:58:13.876Z,11.60
2022-10-02T01:00:45.990Z,11.60
2022-10-02T01:03:21.777Z,11.60
2022-10-02T01:05:49.754Z,11.60
2022-10-02T01:08:17.370Z,11.60
2022-10-02T01:10:45.079Z,11.60
2022-10-02T01:13:12.852Z,11.70
2022-10-02T01:15:49.973Z,11.70
2022-10-02T01:18:17.388Z,11.70
2022-10-02T01:20:48.634Z,11.70
2022-10-02T01:23:24.514Z,11.70
2022-10-02T01:25:51.746Z,11.80
2022-10-02T01:28:19.089Z,11.70
2022-10-02T01:30:50.836Z,11.80
2022-10-02T01:33:18.049Z,11.80
2022-10-02T01:35:46.017Z,11.80
2022-10-02T01:38:17.262Z,11.80
2022-10-02T01:40:44.692Z,11.80
2022-10-02T01:43:34.163Z,11.80
2022-10-02T01:46:13.210Z,11.90
2022-10-02T01:48:58.165Z,11.90
2022-10-02T01:51:57.934Z,11.90
2022-10-02T01:54:47.739Z,11.90
2022-10-02T01:57:26.627Z,11.90
2022-10-02T02:00:11.281Z,11.90
2022-10-02T02:02:59.669Z,11.90
2022-10-02T02:05:46.683Z,11.90
2022-10-02T02:08:52.586Z,11.90
2022-10-02T02:11:21.635Z,11.90
2022-10-02T02:14:06.573Z,11.90
2022-10-02T02:16:43.421Z,12.00
2022-10-02T02:19:16.614Z,12.00
2022-10-02T02:21:52.687Z,12.00
2022-10-02T02:24:45.482Z,12.00
2022-10-02T02:27:17.308Z,12.00
2022-10-02T02:29:48.229Z,12.00
2022-10-02T02:32:19.851Z,12.00
2022-10-02T02:34:53.718Z,12.00
2022-10-02T02:37:23.863Z,12.00
2022-10-02T02:40:00.212Z,12.00
2022-10-02T02:42:32.288Z,12.00
2022-10-02T02:45:21.429Z,12.00
2022-10-02T02:48:00.303Z,12.10
2022-10-02T02:50:40.718Z,12.00
2022-10-02T02:53:16.871Z,12.00
2022-10-02T02:55:51.788Z,12.00
2022-10-02T02:58:29.761Z,12.00
2022-10-02T03:00:57.005Z,12.00
2022-10-02T03:03:23.930Z,12.00
2022-10-02T03:06:01.153Z,12.00
2022-10-02T03:08:31.890Z,12.00
2022-10-02T03:11:23.202Z,12.00
2022-10-02T03:13:59.077Z,12.00
2022-10-02T03:17:07.252Z,12.00
2022-10-02T03:19:34.202Z,12.00
2022-10-02T03:22:07.253Z,12.00
2022-10-02T03:24:59.745Z,12.00
2022-10-02T03:28:37.445Z,12.00
2022-10-02T03:31:07.688Z,12.00
2022-10-02T03:33:37.387Z,11.90
2022-10-02T03:36:05.544Z,12.00
2022-10-02T03:38:33.857Z,12.00
2022-10-02T03:41:00.782Z,11.90
2022-10-02T03:43:29.869Z,12.00
2022-10-02T03:45:57.086Z,12.00
2022-10-02T03:48:24.229Z,12.00
2022-10-02T03:50:51.325Z,12.00
2022-10-02T03:53:20.872Z,12.00
2022-10-02T03:56:13.156Z,12.00
2022-10-02T03:58:45.288Z,12.00
2022-10-02T04:01:26.941Z,12.00
2022-10-02T04:04:04.219Z,12.00
2022-10-02T04:06:37.300Z,12.10
2022-10-02T04:09:27.823Z,12.10
2022-10-02T04:11:59.415Z,12.10
2022-10-02T04:14:47.911Z,12.00
2022-10-02T04:17:23.962Z,12.00
2022-10-02T04:19:59.731Z,12.10
2022-10-02T04:22:39.071Z,12.10
2022-10-02T04:25:15.643Z,12.10
2022-10-02T04:27:49.839Z,12.10
2022-10-02T04:30:19.529Z,12.10
2022-10-02T04:32:47.593Z,12.10
2022-10-02T04:35:20.326Z,12.10
2022-10-02T04:38:06.643Z,12.10
2022-10-02T04:41:11.367Z,11.10
2022-10-02T04:44:12.632Z,12.10
2022-10-02T04:47:26.116Z,12.10
2022-10-02T04:50:10.864Z,12.10
2022-10-02T04:52:51.190Z,12.10
2022-10-02T04:55:36.880Z,12.10
2022-10-02T04:58:31.108Z,14.10
2022-10-02T05:01:37.824Z,12.10
2022-10-02T05:04:20.050Z,12.10
2022-10-02T05:07:04.819Z,13.50
2022-10-02T05:09:48.916Z,12.10
2022-10-02T05:12:44.200Z,12.10
2022-10-02T05:15:41.145Z,12.10
2022-10-02T05:18:32.666Z,12.20
2022-10-02T05:21:02.359Z,12.20
2022-10-02T05:23:57.184Z,12.20
2022-10-02T05:26:58.121Z,12.20
2022-10-02T05:29:25.052Z,12.20
2022-10-02T05:32:22.341Z,12.20
2022-10-02T05:34:58.422Z,12.30
2022-10-02T05:37:40.350Z,12.30
2022-10-02T05:40:31.870Z,12.30
2022-10-02T05:43:12.986Z,12.30
2022-10-02T05:45:48.315Z,12.30
2022-10-02T05:48:26.521Z,12.30
2022-10-02T05:50:59.545Z,12.30
2022-10-02T05:53:40.277Z,12.30
2022-10-02T05:56:22.100Z,12.30
2022-10-02T05:58:56.643Z,12.30
2022-10-02T06:01:29.874Z,12.30
2022-10-02T06:04:22.378Z,12.30
2022-10-02T06:06:54.623Z,12.30
2022-10-02T06:09:49.794Z,12.30
2022-10-02T06:12:48.494Z,12.30
2022-10-02T06:15:22.927Z,12.30
2022-10-02T06:17:59.381Z,12.30
2022-10-02T06:20:29.461Z,12.30
2022-10-02T06:23:06.540Z,12.40
2022-10-02T06:25:46.142Z,12.40
2022-10-02T06:28:40.058Z,12.40
2022-10-02T06:31:42.823Z,12.50
2022-10-02T06:34:13.284Z,12.50
2022-10-02T06:36:44.385Z,12.60
2022-10-02T06:39:51.664Z,12.60
2022-10-02T06:42:18.522Z,12.70
2022-10-02T06:44:54.147Z,14.80
2022-10-02T06:47:45.399Z,12.70
2022-10-02T06:50:27.585Z,12.70
2022-10-02T06:53:12.565Z,12.80
2022-10-02T06:55:51.493Z,12.80
2022-10-02T06:58:53.081Z,12.80
2022-10-02T07:01:29.632Z,12.90
2022-10-02T07:04:26.060Z,12.90
2022-10-02T07:07:18.745Z,13.00
2022-10-02T07:10:04.354Z,13.00
2022-10-02T07:12:37.283Z,13.00
2022-10-02T07:15:26.275Z,13.10
2022-10-02T07:17:56.012Z,13.20
2022-10-02T07:21:04.813Z,13.30
2022-10-02T07:23:46.691Z,13.40
2022-10-02T07:26:28.730Z,13.40
2022-10-02T07:29:04.504Z,13.50
2022-10-02T07:31:49.475Z,13.50
2022-10-02T07:34:21.096Z,13.50
2022-10-02T07:37:17.289Z,13.60
2022-10-02T07:40:02.434Z,13.60
2022-10-02T07:42:37.280Z,13.60
2022-10-02T07:45:28.600Z,13.70
2022-10-02T07:48:17.350Z,13.70
2022-10-02T07:51:35.197Z,13.80
2022-10-02T07:54:26.337Z,14.00
2022-10-02T07:56:59.065Z,14.10
2022-10-02T07:59:26.968Z,14.40
2022-10-02T08:01:55.680Z,14.80
2022-10-02T08:04:34.621Z,15.30
2022-10-02T08:07:06.506Z,16.10
2022-10-02T08:09:49.219Z,16.80
2022-10-02T08:12:27.609Z,17.60
2022-10-02T08:14:56.304Z,18.40
2022-10-02T08:17:31.828Z,19.00
2022-10-02T08:20:29.542Z,19.50
2022-10-02T08:23:13.523Z,20.20
2022-10-02T08:25:51.739Z,20.70
2022-10-02T08:28:27.953Z,21.00
2022-10-02T08:30:55.017Z,21.30
2022-10-02T08:33:23.194Z,21.10
2022-10-02T08:36:35.507Z,20.90
2022-10-02T08:39:35.476Z,20.60
2022-10-02T08:42:17.808Z,20.30
2022-10-02T08:45:08.012Z,19.90
2022-10-02T08:47:43.725Z,19.60
2022-10-02T08:50:46.855Z,19.30
2022-10-02T08:54:11.739Z,19.10
2022-10-02T08:56:50.114Z,18.80
2022-10-02T08:59:46.765Z,18.60
2022-10-02T09:02:51.192Z,18.60
2022-10-02T09:05:52.379Z,18.40
2022-10-02T09:08:40.959Z,18.40
2022-10-02T09:11:11.056Z,18.30
2022-10-02T09:14:07.113Z,18.30
2022-10-02T09:16:54.383Z,18.40
2022-10-02T09:19:46.115Z,18.40
2022-10-02T09:22:31.228Z,18.40
2022-10-02T09:25:26.380Z,18.40
2022-10-02T09:28:13.757Z,18.50
2022-10-02T09:30:43.524Z,18.50
2022-10-02T09:33:27.232Z,18.60
2022-10-02T09:36:10.043Z,18.60
2022-10-02T09:38:45.846Z,18.70
2022-10-02T09:41:33.880Z,18.70
2022-10-02T09:44:12.909Z,18.70
2022-10-02T09:46:57.041Z,18.60
2022-10-02T09:50:00.684Z,18.70
2022-10-02T09:52:52.262Z,18.60
2022-10-02T09:55:49.466Z,18.50
2022-10-02T09:58:37.691Z,18.50
2022-10-02T10:01:07.681Z,18.50
2022-10-02T10:03:57.952Z,18.40
2022-10-02T10:06:39.183Z,18.40
2022-10-02T10:09:27.926Z,18.30
2022-10-02T10:12:25.371Z,17.80
2022-10-02T10:14:55.112Z,17.50
2022-10-02T10:17:31.004Z,17.40
2022-10-02T10:20:37.236Z,17.40
2022-10-02T10:23:38.939Z,17.40
2022-10-02T10:26:16.386Z,17.40
2022-10-02T10:29:11.237Z,17.40
2022-10-02T10:31:56.325Z,17.40
2022-10-02T10:34:26.285Z,17.40
2022-10-02T10:37:24.466Z,17.30
2022-10-02T10:40:36.055Z,17.20
2022-10-02T10:43:16.898Z,17.20
2022-10-02T10:45:59.035Z,17.30
2022-10-02T10:48:52.620Z,17.30
2022-10-02T10:51:45.770Z,17.50
2022-10-02T10:54:40.516Z,17.60
2022-10-02T10:57:46.610Z,17.70
2022-10-02T11:00:20.864Z,17.80
2022-10-02T11:02:58.800Z,17.90
2022-10-02T11:06:19.857Z,17.80
2022-10-02T11:08:49.856Z,17.90
2022-10-02T11:11:19.824Z,17.80
2022-10-02T11:13:55.908Z,17.80
2022-10-02T11:16:45.002Z,17.80
2022-10-02T11:19:22.202Z,17.70
2022-10-02T11:22:12.620Z,17.60
2022-10-02T11:25:21.356Z,17.50
2022-10-02T11:28:12.999Z,17.50
2022-10-02T11:30:49.316Z,17.50
2022-10-02T11:33:49.010Z,17.40
2022-10-02T11:36:18.719Z,17.40
2022-10-02T11:39:07.427Z,17.40
2022-10-02T11:41:59.333Z,17.50
2022-10-02T11:44:50.506Z,17.40
2022-10-02T11:47:28.698Z,17.50
2022-10-02T11:50:23.639Z,17.50
2022-10-02T11:53:34.597Z,17.60
2022-10-02T11:56:11.779Z,17.90
2022-10-02T11:58:50.593Z,18.00
2022-10-02T12:01:35.877Z,18.10
2022-10-02T12:04:34.058Z,18.20
2022-10-02T12:07:17.167Z,18.30
2022-10-02T12:09:54.754Z,18.30
2022-10-02T12:12:41.042Z,18.30
2022-10-02T12:15:33.265Z,18.30
2022-10-02T12:18:21.864Z,18.30
2022-10-02T12:21:23.215Z,18.30
2022-10-02T12:24:18.329Z,18.30
2022-10-02T12:27:22.182Z,18.40
2022-10-02T12:30:19.442Z,18.40
2022-10-02T12:32:49.877Z,18.50
2022-10-02T12:35:33.160Z,18.50
2022-10-02T12:38:30.804Z,18.40
2022-10-02T12:41:13.330Z,18.40
2022-10-02T12:43:53.918Z,18.40
2022-10-02T12:46:35.972Z,18.40
2022-10-02T12:49:20.112Z,18.40
2022-10-02T12:52:05.824Z,18.50
2022-10-02T12:54:44.665Z,18.50
2022-10-02T12:57:50.298Z,18.40
2022-10-02T13:00:23.673Z,18.40
2022-10-02T13:03:09.099Z,18.40
2022-10-02T13:06:03.620Z,18.50
2022-10-02T13:08:41.433Z,18.60
2022-10-02T13:11:53.659Z,18.60
2022-10-02T13:14:39.088Z,18.80
2022-10-02T13:17:22.081Z,18.80
2022-10-02T13:19:55.049Z,18.80
2022-10-02T13:22:24.986Z,18.70
2022-10-02T13:25:20.050Z,18.60
2022-10-02T13:28:13.636Z,18.60
2022-10-02T13:31:03.140Z,18.50
2022-10-02T13:34:14.560Z,18.40
2022-10-02T13:37:07.830Z,18.20
2022-10-02T13:39:58.485Z,18.10
2022-10-02T13:42:37.097Z,18.10
2022-10-02T13:45:12.840Z,18.00
2022-10-02T13:47:54.950Z,17.90
2022-10-02T13:50:43.614Z,17.90
2022-10-02T13:53:22.739Z,17.90
2022-10-02T13:56:09.153Z,17.70
2022-10-02T13:58:50.936Z,17.40
2022-10-02T14:01:46.321Z,17.20
2022-10-02T14:04:37.338Z,16.90
2022-10-02T14:07:38.504Z,16.70
2022-10-02T14:10:25.815Z,16.60
2022-10-02T14:13:07.868Z,16.40
2022-10-02T14:16:09.956Z,16.40
2022-10-02T14:19:03.354Z,16.30
2022-10-02T14:22:00.980Z,16.30
2022-10-02T14:24:58.071Z,16.20
2022-10-02T14:27:58.477Z,16.20
2022-10-02T14:30:54.038Z,16.10
2022-10-02T14:33:54.586Z,16.00
2022-10-02T14:36:40.776Z,16.00
2022-10-02T14:39:13.894Z,16.00
2022-10-02T14:42:05.083Z,15.90
2022-10-02T14:45:01.342Z,15.80
2022-10-02T14:47:48.258Z,15.70
2022-10-02T14:50:52.739Z,15.70
2022-10-02T14:54:05.644Z,15.60
2022-10-02T14:56:52.085Z,15.60
2022-10-02T14:59:50.167Z,15.70
2022-10-02T15:02:35.658Z,15.70
2022-10-02T15:05:21.452Z,15.70
2022-10-02T15:07:48.516Z,15.70
2022-10-02T15:10:49.278Z,15.60
2022-10-02T15:13:33.209Z,15.50
2022-10-02T15:16:30.807Z,15.40
2022-10-02T15:19:03.441Z,15.40
2022-10-02T15:21:41.547Z,15.50
2022-10-02T15:24:27.461Z,15.60
2022-10-02T15:27:14.312Z,15.70
2022-10-02T15:30:02.485Z,15.70
2022-10-02T15:32:29.485Z,15.80
2022-10-02T15:35:02.555Z,15.90
2022-10-02T15:37:48.214Z,15.90
2022-10-02T15:40:15.205Z,15.90
2022-10-02T15:42:58.539Z,16.00
2022-10-02T15:45:33.522Z,16.10
2022-10-02T15:48:33.817Z,16.00
2022-10-02T15:51:44.385Z,16.00
2022-10-02T15:54:42.982Z,16.00
2022-10-02T15:57:35.212Z,16.00
2022-10-02T16:00:08.409Z,15.90
2022-10-02T16:02:57.319Z,15.90
2022-10-02T16:05:52.417Z,15.90
2022-10-02T16:08:42.596Z,15.90
2022-10-02T16:11:09.547Z,15.90
2022-10-02T16:14:04.840Z,15.90
2022-10-02T16:16:37.900Z,15.90
2022-10-02T16:19:23.394Z,15.90
2022-10-02T16:22:37.928Z,15.90
2022-10-02T16:25:14.241Z,15.90
2022-10-02T16:27:53.422Z,15.80
2022-10-02T16:30:25.796Z,15.90
2022-10-02T16:33:21.114Z,15.80
2022-10-02T16:35:57.184Z,15.80
2022-10-02T16:38:50.895Z,15.70
2022-10-02T16:41:38.451Z,15.70
2022-10-02T16:44:36.677Z,15.60
2022-10-02T16:47:18.925Z,15.60
2022-10-02T16:50:00.890Z,15.60
2022-10-02T16:52:45.531Z,15.60
2022-10-02T16:55:15.752Z,15.50
2022-10-02T16:57:42.873Z,15.50
2022-10-02T17:00:22.676Z,15.50
2022-10-02T17:03:06.363Z,15.60
2022-10-02T17:05:33.870Z,15.50
2022-10-02T17:08:07.564Z,15.50
2022-10-02T17:10:46.736Z,15.40
2022-10-02T17:13:33.239Z,15.50
2022-10-02T17:16:08.043Z,15.50
2022-10-02T17:19:01.860Z,15.40
2022-10-02T17:21:39.572Z,15.40
2022-10-02T17:24:36.838Z,15.30
2022-10-02T17:27:14.682Z,15.30
2022-10-02T17:29:58.946Z,15.30
2022-10-02T17:32:47.089Z,15.30
2022-10-02T17:35:25.930Z,15.20
2022-10-02T17:37:52.904Z,15.20
2022-10-02T17:40:41.620Z,15.10
2022-10-02T17:43:40.205Z,15.10
2022-10-02T17:46:27.517Z,15.10
2022-10-02T17:49:03.630Z,15.10
2022-10-02T17:51:52.323Z,15.00
2022-10-02T17:54:55.584Z,15.00
2022-10-02T17:57:28.528Z,14.90
2022-10-02T18:00:06.020Z,14.90
2022-10-02T18:02:57.527Z,14.90
2022-10-02T18:05:57.633Z,14.90
2022-10-02T18:09:08.996Z,14.90
2022-10-02T18:12:07.930Z,14.80
2022-10-02T18:15:11.479Z,15.10
2022-10-02T18:18:16.096Z,14.90
2022-10-02T18:21:13.760Z,14.80
2022-10-02T18:24:01.863Z,14.80
2022-10-02T18:27:01.623Z,14.80
2022-10-02T18:29:56.177Z,14.80
2022-10-02T18:32:47.256Z,14.80
2022-10-02T18:35:33.022Z,14.70
2022-10-02T18:38:09.150Z,14.60
2022-10-02T18:41:07.485Z,14.00
2022-10-02T18:43:59.284Z,13.80
2022-10-02T18:46:26.616Z,13.60
2022-10-02T18:49:38.270Z,13.50
2022-10-02T18:52:23.874Z,13.40
2022-10-02T18:55:28.216Z,13.10
2022-10-02T18:58:21.959Z,13.00
2022-10-02T19:00:57.734Z,12.90
2022-10-02T19:03:37.289Z,12.80
2022-10-02T19:06:41.810Z,12.70
2022-10-02T19:09:08.709Z,12.70
2022-10-02T19:11:46.949Z,12.60
2022-10-02T19:14:33.118Z,12.70
2022-10-02T19:17:20.921Z,12.80
2022-10-02T19:19:47.926Z,12.80
2022-10-02T19:22:21.535Z,12.80
2022-10-02T19:25:03.442Z,12.90
2022-10-02T19:27:36.941Z,12.90
2022-10-02T19:30:20.338Z,12.90
2022-10-02T19:32:50.378Z,12.90
2022-10-02T19:35:22.319Z,12.90
2022-10-02T19:37:52.311Z,12.90
2022-10-02T19:40:23.710Z,12.80
2022-10-02T19:43:05.025Z,12.80
2022-10-02T19:45:34.604Z,12.80
2022-10-02T19:48:08.155Z,12.80
2022-10-02T19:50:40.415Z,12.90
2022-10-02T19:53:34.996Z,12.90
2022-10-02T19:56:12.143Z,12.90
2022-10-02T19:58:48.540Z,12.90
2022-10-02T20:01:26.624Z,12.80
2022-10-02T20:04:02.422Z,12.80
2022-10-02T20:06:35.137Z,12.80
2022-10-02T20:09:16.214Z,12.70
2022-10-02T20:11:51.561Z,12.60
2022-10-02T20:14:28.022Z,12.50
2022-10-02T20:17:09.915Z,12.50
2022-10-02T20:19:59.376Z,12.50
2022-10-02T20:22:48.395Z,12.40
2022-10-02T20:25:28.460Z,12.40
2022-10-02T20:28:27.100Z,12.50
2022-10-02T20:31:18.181Z,12.60
2022-10-02T20:33:52.184Z,12.60
2022-10-02T20:36:32.585Z,12.60
2022-10-02T20:39:10.947Z,12.70
2022-10-02T20:41:55.853Z,12.70
2022-10-02T20:44:23.085Z,12.70
2022-10-02T20:47:08.840Z,12.60
2022-10-02T20:50:22.750Z,12.70
2022-10-02T20:53:17.431Z,12.70
2022-10-02T20:55:47.434Z,12.70
2022-10-02T20:58:36.056Z,12.70
2022-10-02T21:01:14.995Z,12.70
2022-10-02T21:03:50.090Z,12.60
2022-10-02T21:07:02.910Z,12.60
2022-10-02T21:10:01.848Z,12.60
2022-10-02T21:12:53.474Z,12.60
2022-10-02T21:15:38.552Z,12.60
2022-10-02T21:18:42.952Z,12.60
2022-10-02T21:21:41.584Z,12.60
2022-10-02T21:24:23.954Z,12.60
2022-10-02T21:27:15.136Z,12.50
2022-10-02T21:30:04.044Z,12.50
2022-10-02T21:32:30.997Z,12.50
2022-10-02T21:35:28.857Z,12.50
2022-10-02T21:38:16.030Z,12.50
2022-10-02T21:41:21.104Z,12.50
2022-10-02T21:44:06.124Z,12.40
2022-10-02T21:46:51.491Z,12.40
2022-10-02T21:49:55.268Z,12.40
2022-10-02T21:52:55.656Z,12.40
2022-10-02T21:55:50.358Z,12.40
2022-10-02T21:58:26.133Z,12.40
2022-10-02T22:01:22.722Z,12.30
2022-10-02T22:04:08.082Z,12.30
2022-10-02T22:06:38.126Z,12.30
2022-10-02T22:09:27.967Z,12.20
2022-10-02T22:11:57.728Z,12.20
2022-10-02T22:14:47.761Z,12.10
2022-10-02T22:17:32.747Z,12.10
2022-10-02T22:20:20.902Z,12.10
2022-10-02T22:23:12.098Z,12.00
2022-10-02T22:26:14.546Z,12.10
2022-10-02T22:28:47.230Z,12.00
2022-10-02T22:31:43.677Z,12.00
2022-10-02T22:34:32.752Z,12.00
2022-10-02T22:36:59.659Z,12.00
2022-10-02T22:39:31.420Z,12.00
2022-10-02T22:42:12.143Z,12.00
2022-10-02T22:44:52.370Z,12.10
2022-10-02T22:47:34.906Z,12.10
2022-10-02T22:50:10.358Z,12.10
2022-10-02T22:52:48.968Z,12.10
2022-10-02T22:55:15.914Z,12.10
2022-10-02T22:57:52.693Z,12.10
2022-10-02T23:00:23.099Z,12.10
2022-10-02T23:03:06.025Z,12.00
2022-10-02T23:05:35.992Z,11.90
2022-10-02T23:08:22.948Z,11.90
2022-10-02T23:11:02.164Z,11.80
2022-10-02T23:13:35.993Z,11.70
2022-10-02T23:16:08.061Z,11.70
2022-10-02T23:18:54.281Z,13.30
2022-10-02T23:21:45.974Z,11.70
2022-10-02T23:24:13.146Z,11.60
2022-10-02T23:26:53.068Z,11.60
2022-10-02T23:29:39.219Z,11.50
2022-10-02T23:32:27.497Z,11.40
2022-10-02T23:35:05.012Z,11.40
2022-10-02T23:37:53.913Z,11.30
2022-10-02T23:40:55.618Z,11.30
2022-10-02T23:43:32.721Z,11.20
2022-10-02T23:46:15.014Z,11.10
2022-10-02T23:48:42.894Z,11.20
2022-10-02T23:51:23.335Z,11.10
2022-10-02T23:54:15.211Z,11.20
2022-10-02T23:57:24.889Z,11.20
